createdAt,value
2023-05-16T00:00:47.619Z,15.00
2023-05-16T00:03:34.498Z,15.00
2023-05-16T00:06:22.574Z,14.90
2023-05-16T00:09:09.072Z,14.90
2023-05-16T00:11:56.296Z,14.90
2023-05-16T00:14:43.129Z,14.90
2023-05-16T00:17:29.923Z,14.90
2023-05-16T00:20:18.919Z,14.90
2023-05-16T00:23:06.872Z,14.90
2023-05-16T00:25:53.285Z,14.90
2023-05-16T00:28:39.763Z,14.90
2023-05-16T00:31:26.368Z,14.80
2023-05-16T00:34:13.239Z,14.80
2023-05-16T00:37:00.306Z,14.70
2023-05-16T00:39:48.342Z,14.70
2023-05-16T00:42:34.961Z,14.70
2023-05-16T00:45:21.486Z,14.70
2023-05-16T00:48:09.346Z,14.60
2023-05-16T00:50:56.192Z,14.60
2023-05-16T00:53:43.612Z,14.60
2023-05-16T00:56:31.473Z,14.60
2023-05-16T00:59:18.171Z,14.60
2023-05-16T01:02:04.656Z,14.60
2023-05-16T01:04:52.044Z,14.50
2023-05-16T01:07:39.056Z,14.60
2023-05-16T01:10:33.766Z,14.60
2023-05-16T01:13:32.109Z,14.60
2023-05-16T01:16:27.324Z,14.60
2023-05-16T01:19:22.386Z,14.50
2023-05-16T01:22:17.186Z,14.50
2023-05-16T01:25:10.678Z,14.40
2023-05-16T01:27:59.431Z,14.40
2023-05-16T01:30:46.255Z,14.40
2023-05-16T01:33:32.620Z,14.40
2023-05-16T01:36:25.800Z,14.40
2023-05-16T01:39:19.287Z,14.50
2023-05-16T01:42:09.943Z,14.50
2023-05-16T01:45:01.940Z,14.40
2023-05-16T01:47:53.855Z,14.50
2023-05-16T01:50:44.708Z,14.40
2023-05-16T01:53:39.156Z,14.50
2023-05-16T01:56:27.299Z,14.40
2023-05-16T01:59:14.577Z,14.40
2023-05-16T02:02:02.505Z,14.40
2023-05-16T02:04:52.030Z,14.40
2023-05-16T02:07:39.546Z,14.40
2023-05-16T02:10:26.654Z,14.40
2023-05-16T02:13:13.249Z,14.40
2023-05-16T02:16:00.521Z,14.40
2023-05-16T02:18:48.612Z,14.40
2023-05-16T02:21:35.577Z,14.40
2023-05-16T02:24:22.106Z,14.40
2023-05-16T02:27:08.564Z,14.40
2023-05-16T02:29:55.232Z,14.40
2023-05-16T02:32:45.022Z,14.30
2023-05-16T02:35:33.172Z,14.30
2023-05-16T02:38:21.162Z,14.20
2023-05-16T02:41:08.391Z,14.20
2023-05-16T02:43:55.222Z,14.20
2023-05-16T02:46:41.547Z,14.20
2023-05-16T02:49:28.444Z,14.20
2023-05-16T02:52:16.286Z,14.30
2023-05-16T02:57:52.886Z,14.30
2023-05-16T03:00:39.326Z,14.30
2023-05-16T03:03:26.369Z,14.20
2023-05-16T03:06:13.409Z,14.30
2023-05-16T03:09:01.753Z,14.20
2023-05-16T03:11:48.119Z,14.30
2023-05-16T03:14:34.629Z,14.30
2023-05-16T03:17:23.364Z,14.20
2023-05-16T03:20:12.854Z,14.20
2023-05-16T03:22:59.242Z,14.30
2023-05-16T03:25:47.220Z,14.20
2023-05-16T03:28:33.968Z,14.20
2023-05-16T03:31:21.456Z,14.30
2023-05-16T03:34:08.384Z,14.20
2023-05-16T03:36:55.349Z,14.20
2023-05-16T03:39:41.867Z,14.20
2023-05-16T03:42:30.204Z,14.20
2023-05-16T03:45:17.424Z,14.10
2023-05-16T03:48:04.261Z,14.10
2023-05-16T03:50:51.379Z,14.00
2023-05-16T03:53:38.603Z,14.00
2023-05-16T03:56:25.978Z,13.90
2023-05-16T03:59:13.747Z,13.90
2023-05-16T04:02:00.688Z,13.90
2023-05-16T04:04:47.494Z,13.90
2023-05-16T04:07:33.909Z,13.90
2023-05-16T04:10:20.252Z,13.90
2023-05-16T04:13:06.753Z,14.00
2023-05-16T04:15:54.634Z,13.90
2023-05-16T04:18:41.409Z,14.00
2023-05-16T04:21:28.372Z,13.90
2023-05-16T04:24:15.354Z,13.90
2023-05-16T04:27:01.955Z,13.90
2023-05-16T04:29:49.301Z,13.90
2023-05-16T04:32:37.495Z,13.90
2023-05-16T04:35:24.103Z,13.80
2023-05-16T04:38:10.939Z,13.80
2023-05-16T04:40:57.282Z,13.70
2023-05-16T04:43:43.916Z,13.70
2023-05-16T04:46:31.077Z,13.60
2023-05-16T04:49:19.068Z,13.60
2023-05-16T04:52:06.063Z,13.60
2023-05-16T04:54:53.087Z,13.70
2023-05-16T04:57:39.767Z,13.60
2023-05-16T05:00:27.106Z,13.70
2023-05-16T05:03:13.907Z,13.60
2023-05-16T05:06:02.116Z,13.50
2023-05-16T05:08:48.738Z,13.40
2023-05-16T05:11:35.420Z,13.40
2023-05-16T05:14:23.106Z,13.40
2023-05-16T05:17:09.535Z,13.40
2023-05-16T05:19:56.447Z,13.40
2023-05-16T05:22:44.350Z,13.40
2023-05-16T05:25:31.043Z,13.40
2023-05-16T05:28:17.944Z,13.40
2023-05-16T05:31:06.299Z,13.40
2023-05-16T05:33:53.030Z,13.40
2023-05-16T05:36:39.598Z,13.40
2023-05-16T05:39:27.749Z,13.40
2023-05-16T05:42:14.657Z,13.40
2023-05-16T05:45:01.634Z,13.40
2023-05-16T05:47:48.963Z,13.40
2023-05-16T05:50:36.059Z,13.40
2023-05-16T05:53:23.586Z,13.40
2023-05-16T05:56:11.827Z,13.40
2023-05-16T05:58:58.444Z,13.50
2023-05-16T06:01:45.452Z,13.50
2023-05-16T06:04:32.457Z,13.60
2023-05-16T06:07:19.462Z,13.50
2023-05-16T06:10:08.555Z,13.40
2023-05-16T06:12:56.760Z,13.30
2023-05-16T06:15:43.331Z,13.40
2023-05-16T06:18:29.879Z,13.40
2023-05-16T06:21:16.629Z,13.40
2023-05-16T06:24:03.318Z,13.40
2023-05-16T06:26:50.830Z,13.40
2023-05-16T06:29:39.205Z,13.40
2023-05-16T06:32:26.034Z,13.40
2023-05-16T06:35:13.040Z,13.40
2023-05-16T06:37:59.558Z,13.50
2023-05-16T06:40:46.189Z,13.60
2023-05-16T06:43:32.709Z,13.60
2023-05-16T06:46:21.114Z,13.70
2023-05-16T06:49:08.000Z,13.70
2023-05-16T06:51:54.968Z,13.70
2023-05-16T06:54:41.823Z,13.70
2023-05-16T06:57:29.355Z,13.70
2023-05-16T07:00:17.501Z,13.80
2023-05-16T07:03:05.887Z,13.80
2023-05-16T07:05:53.064Z,13.80
2023-05-16T07:08:39.785Z,13.70
2023-05-16T07:11:26.772Z,13.70
2023-05-16T07:14:13.641Z,13.80
2023-05-16T07:17:00.662Z,13.80
2023-05-16T07:19:49.001Z,13.80
2023-05-16T07:22:36.331Z,13.80
2023-05-16T07:25:23.059Z,13.90
2023-05-16T07:28:10.177Z,13.90
2023-05-16T07:30:58.702Z,13.80
2023-05-16T07:33:46.888Z,13.90
2023-05-16T07:36:35.053Z,13.90
2023-05-16T07:39:21.754Z,13.90
2023-05-16T07:42:09.175Z,13.80
2023-05-16T07:44:57.034Z,13.80
2023-05-16T07:47:44.006Z,13.90
2023-05-16T07:50:31.080Z,14.00
2023-05-16T07:53:19.291Z,14.00
2023-05-16T07:56:06.821Z,14.00
2023-05-16T07:58:53.664Z,14.10
2023-05-16T08:01:40.634Z,14.20
2023-05-16T08:04:27.511Z,14.20
2023-05-16T08:07:14.715Z,14.30
2023-05-16T08:10:03.513Z,14.30
2023-05-16T08:12:50.698Z,14.20
2023-05-16T08:15:37.451Z,14.30
2023-05-16T08:18:24.585Z,14.40
2023-05-16T08:21:11.708Z,14.40
2023-05-16T08:23:58.368Z,14.40
2023-05-16T08:26:46.733Z,14.50
2023-05-16T08:29:33.503Z,14.50
2023-05-16T08:32:20.665Z,14.50
2023-05-16T08:35:08.925Z,14.40
2023-05-16T08:37:55.917Z,14.30
2023-05-16T08:40:44.244Z,14.30
2023-05-16T08:43:33.334Z,14.30
2023-05-16T08:46:23.371Z,14.30
2023-05-16T08:49:11.312Z,14.40
2023-05-16T08:52:00.346Z,14.30
2023-05-16T08:54:55.279Z,14.20
2023-05-16T08:57:52.773Z,14.20
2023-05-16T09:00:41.315Z,14.20
2023-05-16T09:03:29.044Z,14.10
2023-05-16T09:06:16.612Z,14.10
2023-05-16T09:09:04.705Z,14.00
2023-05-16T09:11:51.737Z,14.00
2023-05-16T09:14:38.766Z,13.80
2023-05-16T09:17:38.826Z,13.70
2023-05-16T09:20:28.490Z,13.60
2023-05-16T09:23:15.535Z,13.60
2023-05-16T09:26:02.866Z,13.50
2023-05-16T09:28:49.727Z,13.60
2023-05-16T09:31:38.399Z,13.70
2023-05-16T09:34:26.590Z,13.70
2023-05-16T09:37:13.443Z,13.90
2023-05-16T09:40:00.684Z,13.90
2023-05-16T09:42:47.940Z,14.00
2023-05-16T09:45:36.230Z,14.00
2023-05-16T09:48:23.786Z,13.80
2023-05-16T09:51:13.752Z,13.70
2023-05-16T09:54:01.110Z,13.80
2023-05-16T09:56:51.568Z,13.90
2023-05-16T09:59:39.556Z,14.00
2023-05-16T10:02:27.703Z,14.20
2023-05-16T10:05:14.978Z,14.30
2023-05-16T10:08:05.472Z,14.30
2023-05-16T10:10:54.083Z,14.40
2023-05-16T10:13:41.497Z,14.40
2023-05-16T10:16:28.430Z,14.40
2023-05-16T10:19:16.600Z,14.40
2023-05-16T10:22:08.353Z,14.30
2023-05-16T10:25:05.227Z,14.30
2023-05-16T10:27:52.897Z,14.30
2023-05-16T10:30:44.129Z,14.10
2023-05-16T10:33:31.041Z,14.10
2023-05-16T10:36:18.601Z,14.10
2023-05-16T10:39:05.490Z,14.10
2023-05-16T10:41:54.302Z,14.10
2023-05-16T10:44:42.748Z,14.10
2023-05-16T10:47:35.958Z,14.20
2023-05-16T10:50:36.529Z,14.20
2023-05-16T10:53:24.830Z,14.10
2023-05-16T10:56:12.945Z,14.00
2023-05-16T10:59:01.251Z,14.00
2023-05-16T11:01:54.243Z,13.80
2023-05-16T11:04:49.375Z,13.70
2023-05-16T11:07:38.506Z,13.60
2023-05-16T11:10:25.203Z,13.60
2023-05-16T11:13:12.078Z,13.60
2023-05-16T11:16:28.404Z,13.60
2023-05-16T11:19:30.988Z,13.50
2023-05-16T11:22:29.470Z,13.50
2023-05-16T11:25:16.270Z,13.60
2023-05-16T11:28:03.615Z,13.50
2023-05-16T11:30:55.190Z,13.50
2023-05-16T11:33:42.520Z,13.40
2023-05-16T11:36:32.317Z,13.60
2023-05-16T11:39:20.288Z,13.60
2023-05-16T11:42:07.302Z,13.50
2023-05-16T11:45:06.117Z,13.60
2023-05-16T11:47:53.074Z,13.70
2023-05-16T11:50:40.058Z,13.80
2023-05-16T11:53:29.126Z,13.60
2023-05-16T11:56:15.574Z,13.60
2023-05-16T11:59:03.233Z,13.60
2023-05-16T12:01:50.484Z,13.60
2023-05-16T12:04:38.724Z,13.50
2023-05-16T12:07:29.611Z,13.60
2023-05-16T12:10:18.247Z,13.60
2023-05-16T12:13:05.503Z,13.70
2023-05-16T12:15:52.746Z,13.80
2023-05-16T12:18:42.690Z,13.90
2023-05-16T12:21:30.209Z,13.90
2023-05-16T12:24:17.627Z,14.00
2023-05-16T12:27:06.632Z,14.00
2023-05-16T12:29:53.732Z,14.20
2023-05-16T12:32:41.332Z,14.40
2023-05-16T12:35:32.349Z,14.60
2023-05-16T12:38:20.755Z,14.70
2023-05-16T12:41:07.556Z,14.70
2023-05-16T12:44:07.913Z,14.80
2023-05-16T12:46:55.250Z,14.80
2023-05-16T12:49:46.810Z,14.90
2023-05-16T12:52:33.646Z,14.90
2023-05-16T12:55:21.988Z,14.90
2023-05-16T12:58:10.211Z,14.80
2023-05-16T13:00:58.505Z,14.70
2023-05-16T13:03:45.350Z,14.60
2023-05-16T13:06:44.935Z,14.70
2023-05-16T13:09:38.670Z,14.60
2023-05-16T13:12:27.168Z,14.60
2023-05-16T13:15:14.579Z,14.70
2023-05-16T13:18:03.235Z,14.90
2023-05-16T13:20:51.001Z,14.90
2023-05-16T13:23:38.010Z,15.10
2023-05-16T13:26:25.939Z,15.10
2023-05-16T13:29:12.993Z,15.10
2023-05-16T13:32:00.088Z,15.20
2023-05-16T13:34:48.422Z,15.30
2023-05-16T13:37:35.080Z,15.50
2023-05-16T13:40:22.317Z,15.50
2023-05-16T13:43:09.305Z,15.70
2023-05-16T13:45:57.173Z,15.60
2023-05-16T13:48:43.973Z,15.80
2023-05-16T13:51:32.759Z,15.70
2023-05-16T13:54:19.964Z,15.70
2023-05-16T13:57:07.279Z,15.70
2023-05-16T14:00:11.323Z,15.80
2023-05-16T14:03:01.304Z,15.90
2023-05-16T14:05:49.624Z,16.00
2023-05-16T14:08:38.146Z,15.90
2023-05-16T14:11:29.134Z,15.90
2023-05-16T14:14:16.384Z,15.70
2023-05-16T14:17:04.184Z,15.70
2023-05-16T14:19:51.076Z,15.70
2023-05-16T14:22:38.746Z,15.80
2023-05-16T14:25:27.270Z,15.80
2023-05-16T14:28:14.243Z,15.70
2023-05-16T14:31:01.476Z,15.80
2023-05-16T14:33:48.157Z,15.80
2023-05-16T14:36:35.193Z,15.70
2023-05-16T14:39:22.029Z,15.40
2023-05-16T14:42:11.152Z,15.40
2023-05-16T14:44:58.142Z,15.50
2023-05-16T14:47:44.757Z,15.70
2023-05-16T14:50:31.918Z,15.60
2023-05-16T14:53:18.702Z,15.70
2023-05-16T14:56:06.146Z,15.70
2023-05-16T14:58:54.646Z,15.80
2023-05-16T15:01:41.904Z,16.10
2023-05-16T15:04:29.360Z,16.10
2023-05-16T15:07:16.424Z,16.20
2023-05-16T15:10:03.428Z,16.20
2023-05-16T15:12:50.327Z,16.40
2023-05-16T15:15:39.132Z,16.30
2023-05-16T15:18:26.022Z,16.30
2023-05-16T15:21:13.055Z,16.10
2023-05-16T15:23:59.945Z,16.00
2023-05-16T15:26:47.363Z,15.90
2023-05-16T15:29:34.055Z,15.70
2023-05-16T15:32:23.398Z,15.50
2023-05-16T15:35:10.690Z,15.40
2023-05-16T15:37:59.698Z,15.50
2023-05-16T15:40:47.071Z,15.40
2023-05-16T15:43:35.775Z,15.40
2023-05-16T15:46:22.713Z,15.40
2023-05-16T15:49:12.810Z,15.30
2023-05-16T15:51:59.666Z,15.20
2023-05-16T15:54:46.509Z,15.10
2023-05-16T15:57:33.557Z,15.00
2023-05-16T16:00:20.672Z,15.10
2023-05-16T16:03:07.577Z,15.10
2023-05-16T16:05:55.881Z,15.10
2023-05-16T16:08:42.524Z,15.10
2023-05-16T16:11:29.210Z,15.20
2023-05-16T16:14:16.184Z,15.40
2023-05-16T16:17:05.523Z,15.40
2023-05-16T16:19:52.180Z,15.60
2023-05-16T16:22:40.443Z,15.50
2023-05-16T16:25:27.674Z,15.60
2023-05-16T16:28:14.555Z,15.50
2023-05-16T16:31:01.542Z,15.50
2023-05-16T16:33:49.162Z,15.40
2023-05-16T16:36:35.999Z,15.50
2023-05-16T16:39:23.690Z,15.60
2023-05-16T16:42:10.598Z,15.60
2023-05-16T16:44:57.550Z,15.60
2023-05-16T16:47:44.452Z,15.60
2023-05-16T16:50:32.741Z,15.50
2023-05-16T16:53:20.788Z,15.40
2023-05-16T16:56:09.518Z,15.50
2023-05-16T16:58:56.938Z,15.60
2023-05-16T17:01:43.921Z,15.50
2023-05-16T17:04:31.555Z,15.40
2023-05-16T17:07:18.638Z,15.40
2023-05-16T17:10:07.765Z,15.30
2023-05-16T17:12:56.111Z,15.30
2023-05-16T17:15:44.131Z,15.20
2023-05-16T17:18:33.786Z,15.10
2023-05-16T17:21:21.900Z,15.20
2023-05-16T17:24:09.616Z,15.10
2023-05-16T17:26:57.250Z,15.10
2023-05-16T17:29:45.690Z,15.10
2023-05-16T17:32:32.877Z,15.20
2023-05-16T17:35:20.605Z,15.10
2023-05-16T17:38:07.372Z,15.00
2023-05-16T17:40:54.369Z,15.10
2023-05-16T17:43:43.512Z,15.00
2023-05-16T17:46:33.187Z,15.00
2023-05-16T17:49:19.788Z,15.00
2023-05-16T17:52:09.947Z,15.10
2023-05-16T17:54:56.315Z,15.10
2023-05-16T17:57:42.791Z,15.00
2023-05-16T18:00:29.697Z,15.00
2023-05-16T18:03:17.985Z,14.90
2023-05-16T18:06:05.141Z,14.90
2023-05-16T18:08:52.040Z,14.90
2023-05-16T18:11:40.942Z,14.90
2023-05-16T18:14:27.855Z,15.00
2023-05-16T18:17:14.743Z,15.00
2023-05-16T18:20:09.424Z,15.00
2023-05-16T18:22:56.646Z,15.00
2023-05-16T18:25:43.487Z,14.80
2023-05-16T18:28:30.782Z,14.90
2023-05-16T18:31:17.803Z,14.90
2023-05-16T18:34:04.494Z,14.90
2023-05-16T18:36:52.700Z,14.80
2023-05-16T18:39:41.503Z,14.80
2023-05-16T18:42:28.251Z,14.90
2023-05-16T18:45:15.147Z,14.90
2023-05-16T18:48:01.953Z,14.90
2023-05-16T18:50:48.474Z,14.80
2023-05-16T18:53:36.919Z,14.70
2023-05-16T18:56:24.359Z,14.50
2023-05-16T18:59:11.073Z,14.50
2023-05-16T19:01:58.029Z,14.50
2023-05-16T19:04:45.167Z,14.50
2023-05-16T19:07:32.018Z,14.40
2023-05-16T19:10:20.322Z,14.50
2023-05-16T19:13:08.693Z,14.50
2023-05-16T19:15:55.542Z,14.40
2023-05-16T19:18:42.705Z,14.40
2023-05-16T19:21:29.321Z,14.30
2023-05-16T19:24:16.054Z,14.20
2023-05-16T19:27:04.257Z,14.20
2023-05-16T19:29:50.956Z,14.10
2023-05-16T19:32:38.132Z,14.10
2023-05-16T19:35:25.501Z,14.00
2023-05-16T19:38:12.138Z,14.00
2023-05-16T19:40:59.784Z,13.90
2023-05-16T19:43:47.865Z,13.90
2023-05-16T19:46:34.512Z,13.80
2023-05-16T19:49:21.438Z,13.80
2023-05-16T19:52:09.216Z,13.70
2023-05-16T19:54:56.433Z,13.70
2023-05-16T19:57:43.179Z,13.70
2023-05-16T20:00:31.451Z,13.70
2023-05-16T20:03:18.181Z,13.70
2023-05-16T20:06:05.361Z,13.60
2023-05-16T20:08:52.368Z,13.70
2023-05-16T20:11:38.810Z,13.70
2023-05-16T20:14:25.847Z,13.60
2023-05-16T20:17:14.019Z,13.60
2023-05-16T20:20:01.043Z,13.50
2023-05-16T20:22:47.974Z,13.50
2023-05-16T20:25:35.450Z,13.40
2023-05-16T20:28:22.420Z,13.40
2023-05-16T20:31:09.429Z,13.40
2023-05-16T20:33:57.573Z,13.30
2023-05-16T20:36:44.506Z,13.20
2023-05-16T20:39:31.734Z,13.20
2023-05-16T20:42:18.446Z,13.00
2023-05-16T20:45:05.961Z,13.00
2023-05-16T20:47:52.778Z,12.90
2023-05-16T20:50:41.015Z,12.80
2023-05-16T20:53:27.901Z,12.70
2023-05-16T20:56:14.869Z,12.70
2023-05-16T20:59:01.940Z,12.80
2023-05-16T21:01:48.887Z,12.70
2023-05-16T21:04:35.948Z,12.70
2023-05-16T21:07:24.232Z,12.70
2023-05-16T21:10:12.993Z,12.50
2023-05-16T21:12:59.926Z,12.40
2023-05-16T21:15:46.966Z,12.10
2023-05-16T21:18:34.041Z,11.90
2023-05-16T21:21:21.043Z,11.70
2023-05-16T21:24:09.210Z,11.40
2023-05-16T21:26:55.904Z,11.30
2023-05-16T21:29:42.821Z,11.20
2023-05-16T21:32:32.492Z,11.30
2023-05-16T21:35:19.457Z,11.30
2023-05-16T21:38:06.542Z,11.30
2023-05-16T21:40:55.079Z,11.30
2023-05-16T21:43:41.808Z,11.30
2023-05-16T21:46:28.543Z,11.30
2023-05-16T21:49:15.489Z,11.30
2023-05-16T21:52:03.416Z,11.40
2023-05-16T21:54:51.959Z,11.40
2023-05-16T21:57:40.191Z,11.20
2023-05-16T22:00:26.927Z,11.10
2023-05-16T22:03:13.940Z,11.20
2023-05-16T22:06:01.108Z,11.20
2023-05-16T22:08:48.002Z,11.30
2023-05-16T22:11:34.897Z,11.40
2023-05-16T22:14:23.086Z,11.40
2023-05-16T22:17:10.118Z,11.50
2023-05-16T22:19:57.039Z,11.50
2023-05-16T22:22:44.675Z,11.50
2023-05-16T22:25:31.422Z,11.60
2023-05-16T22:28:18.413Z,11.60
2023-05-16T22:31:06.710Z,11.70
2023-05-16T22:33:53.493Z,11.70
2023-05-16T22:36:40.639Z,11.70
2023-05-16T22:39:27.414Z,11.70
2023-05-16T22:42:14.244Z,11.70
2023-05-16T22:45:00.744Z,11.60
2023-05-16T22:47:48.956Z,11.60
2023-05-16T22:50:35.984Z,11.60
2023-05-16T22:53:22.734Z,11.70
2023-05-16T22:56:09.698Z,11.70
2023-05-16T22:58:56.375Z,11.60
2023-05-16T23:01:43.607Z,11.60
2023-05-16T23:04:31.794Z,11.50
2023-05-16T23:07:18.800Z,11.50
2023-05-16T23:10:06.567Z,11.50
2023-05-16T23:12:53.423Z,11.50
2023-05-16T23:15:40.448Z,11.50
2023-05-16T23:18:27.106Z,11.50
2023-05-16T23:21:15.551Z,11.50
2023-05-16T23:24:02.356Z,11.40
2023-05-16T23:26:49.209Z,11.40
2023-05-16T23:29:36.065Z,11.40
2023-05-16T23:32:22.694Z,11.40
2023-05-16T23:35:09.563Z,11.40
2023-05-16T23:37:57.758Z,11.40
2023-05-16T23:40:44.654Z,11.30
2023-05-16T23:43:31.480Z,11.30
2023-05-16T23:46:18.128Z,11.40
2023-05-16T23:49:05.099Z,11.30
2023-05-16T23:51:58.060Z,11.30
2023-05-16T23:54:46.329Z,11.20
2023-05-16T23:57:32.980Z,11.10
